createdAt,value
2022-08-11T00:01:29.297Z,0.00
2022-08-11T00:04:03.466Z,0.10
2022-08-11T00:06:40.073Z,0.13
2022-08-11T00:09:12.996Z,0.13
2022-08-11T00:14:36.777Z,0.00
2022-08-11T00:17:09.747Z,0.00
2022-08-11T00:20:15.023Z,0.00
2022-08-11T00:22:34.328Z,0.63
2022-08-11T00:25:21.633Z,0.05
2022-08-11T00:27:51.790Z,0.10
2022-08-11T00:30:21.841Z,0.10
2022-08-11T00:32:57.554Z,0.10
2022-08-11T00:35:51.815Z,0.10
2022-08-11T00:38:24.879Z,0.10
2022-08-11T00:41:19.636Z,0.10
2022-08-11T00:44:07.963Z,0.10
2022-08-11T00:46:57.956Z,0.20
2022-08-11T00:49:49.777Z,0.10
2022-08-11T00:53:01.104Z,0.10
2022-08-11T00:55:47.243Z,0.10
2022-08-11T00:59:34.230Z,0.10
2022-08-11T01:02:22.214Z,0.00
2022-08-11T01:05:44.091Z,0.10
2022-08-11T01:08:32.864Z,0.10
2022-08-11T01:11:15.249Z,0.10
2022-08-11T01:13:58.584Z,0.10
2022-08-11T01:16:40.634Z,0.10
2022-08-11T01:20:45.453Z,0.00
2022-08-11T01:23:02.264Z,0.10
2022-08-11T01:25:57.000Z,0.10
2022-08-11T01:28:58.510Z,0.10
2022-08-11T01:31:49.762Z,0.03
2022-08-11T01:34:42.876Z,0.10
2022-08-11T01:37:37.478Z,0.00
2022-08-11T01:40:16.053Z,0.10
2022-08-11T01:43:48.396Z,0.10
2022-08-11T01:46:24.686Z,0.10
2022-08-11T01:50:05.974Z,0.13
2022-08-11T01:52:34.690Z,0.10
2022-08-11T01:55:27.846Z,0.10
2022-08-11T01:58:16.483Z,0.00
2022-08-11T02:01:12.608Z,0.10
2022-08-11T02:03:58.513Z,0.10
2022-08-11T02:06:56.865Z,0.10
2022-08-11T02:09:58.209Z,0.10
2022-08-11T02:12:52.546Z,0.10
2022-08-11T02:15:40.176Z,0.10
2022-08-11T02:19:08.996Z,0.10
2022-08-11T02:22:05.042Z,0.10
2022-08-11T02:24:46.389Z,0.10
2022-08-11T02:27:29.005Z,0.00
2022-08-11T02:30:08.620Z,0.10
2022-08-11T02:33:20.095Z,0.10
2022-08-11T02:35:52.917Z,0.10
2022-08-11T02:41:53.782Z,0.10
2022-08-11T02:44:52.472Z,0.00
2022-08-11T02:47:34.121Z,0.08
2022-08-11T02:50:27.113Z,0.10
2022-08-11T02:53:31.319Z,0.30
2022-08-11T02:56:15.200Z,0.10
2022-08-11T02:59:26.446Z,0.10
2022-08-11T03:02:20.554Z,0.08
2022-08-11T03:04:53.937Z,0.10
2022-08-11T03:07:28.688Z,0.10
2022-08-11T03:10:11.173Z,0.10
2022-08-11T03:13:30.684Z,0.10
2022-08-11T03:16:26.846Z,0.00
2022-08-11T03:19:58.499Z,0.10
2022-08-11T03:22:36.188Z,0.10
2022-08-11T03:25:15.069Z,0.10
2022-08-11T03:28:23.164Z,0.10
2022-08-11T03:31:28.955Z,0.00
2022-08-11T03:34:14.537Z,0.00
2022-08-11T03:37:52.196Z,0.10
2022-08-11T03:40:41.943Z,0.10
2022-08-11T03:43:58.600Z,0.10
2022-08-11T03:46:34.737Z,0.10
2022-08-11T03:49:35.521Z,0.10
2022-08-11T03:52:33.699Z,0.10
2022-08-11T03:55:20.048Z,0.17
2022-08-11T03:58:02.327Z,0.10
2022-08-11T04:00:59.843Z,0.03
2022-08-11T04:04:11.425Z,0.10
2022-08-11T04:07:10.764Z,0.00
2022-08-11T04:10:24.675Z,0.10
2022-08-11T04:12:59.520Z,0.10
2022-08-11T04:16:10.900Z,0.10
2022-08-11T04:19:12.972Z,0.20
2022-08-11T04:22:10.099Z,0.10
2022-08-11T04:24:52.484Z,0.10
2022-08-11T04:27:40.773Z,0.10
2022-08-11T04:30:12.292Z,0.10
2022-08-11T04:33:00.635Z,0.22
2022-08-11T04:35:36.422Z,0.10
2022-08-11T04:38:27.898Z,0.10
2022-08-11T04:41:34.742Z,0.10
2022-08-11T04:44:35.236Z,0.10
2022-08-11T04:48:03.312Z,0.10
2022-08-11T04:51:16.852Z,0.10
2022-08-11T04:54:44.753Z,0.10
2022-08-11T04:58:05.024Z,0.10
2022-08-11T05:01:06.302Z,0.10
2022-08-11T05:03:55.080Z,0.10
2022-08-11T05:06:49.895Z,0.10
2022-08-11T05:09:46.479Z,0.00
2022-08-11T05:12:41.574Z,0.10
2022-08-11T05:15:54.588Z,0.08
2022-08-11T05:18:43.955Z,0.10
2022-08-11T05:21:44.864Z,0.10
2022-08-11T05:25:02.552Z,0.10
2022-08-11T05:27:59.205Z,0.00
2022-08-11T05:30:50.498Z,0.00
2022-08-11T05:34:06.211Z,0.20
2022-08-11T05:37:17.156Z,0.10
2022-08-11T05:40:09.348Z,0.17
2022-08-11T05:42:59.822Z,0.20
2022-08-11T05:46:02.370Z,0.17
2022-08-11T05:48:54.473Z,0.10
2022-08-11T05:51:52.421Z,0.10
2022-08-11T05:54:46.157Z,0.20
2022-08-11T05:57:49.575Z,0.10
2022-08-11T06:00:14.650Z,0.10
2022-08-11T06:03:02.379Z,0.10
2022-08-11T06:05:43.313Z,0.10
2022-08-11T06:08:14.964Z,0.10
2022-08-11T06:10:46.306Z,0.10
2022-08-11T06:13:19.510Z,0.10
2022-08-11T06:15:51.383Z,0.10
2022-08-11T06:18:21.385Z,0.00
2022-08-11T06:20:53.029Z,0.10
2022-08-11T06:23:26.811Z,0.10
2022-08-11T06:25:56.872Z,0.13
2022-08-11T06:28:34.321Z,0.10
2022-08-11T06:31:34.404Z,0.10
2022-08-11T06:34:27.568Z,0.10
2022-08-11T06:37:15.875Z,0.13
2022-08-11T06:39:54.759Z,0.10
2022-08-11T06:42:46.331Z,0.30
2022-08-11T06:45:58.524Z,0.10
2022-08-11T06:48:28.523Z,0.10
2022-08-11T06:51:14.026Z,0.10
2022-08-11T06:53:56.346Z,0.10
2022-08-11T07:00:05.157Z,0.10
2022-08-11T07:02:36.107Z,0.10
2022-08-11T07:05:35.484Z,0.10
2022-08-11T07:08:54.405Z,0.20
2022-08-11T07:12:16.383Z,0.10
2022-08-11T07:15:12.214Z,0.10
2022-08-11T07:18:21.645Z,0.10
2022-08-11T07:22:01.631Z,0.10
2022-08-11T07:24:19.839Z,2.10
2022-08-11T07:27:26.143Z,0.13
2022-08-11T07:29:56.787Z,0.10
2022-08-11T07:32:32.000Z,0.10
2022-08-11T07:35:16.040Z,0.00
2022-08-11T07:37:58.198Z,0.10
2022-08-11T07:40:33.637Z,0.10
2022-08-11T07:43:03.766Z,0.10
2022-08-11T07:45:52.121Z,0.10
2022-08-11T07:48:40.645Z,0.10
2022-08-11T07:51:29.386Z,0.10
2022-08-11T07:54:07.587Z,0.10
2022-08-11T07:57:06.498Z,0.15
2022-08-11T07:59:59.896Z,0.03
2022-08-11T08:03:00.666Z,0.10
2022-08-11T08:05:49.135Z,0.20
2022-08-11T08:08:37.855Z,0.10
2022-08-11T08:11:27.479Z,0.00
2022-08-11T08:14:16.218Z,0.10
2022-08-11T08:17:05.227Z,0.05
2022-08-11T08:19:36.316Z,0.10
2022-08-11T08:22:37.400Z,0.10
2022-08-11T08:24:57.759Z,0.10
2022-08-11T08:27:29.049Z,0.10
2022-08-11T08:30:21.255Z,0.10
2022-08-11T08:32:52.186Z,0.10
2022-08-11T08:35:23.027Z,0.10
2022-08-11T08:37:53.553Z,0.10
2022-08-11T08:40:23.793Z,0.10
2022-08-11T08:43:10.263Z,0.10
2022-08-11T08:45:40.844Z,0.10
2022-08-11T08:48:17.803Z,0.10
2022-08-11T08:51:15.108Z,0.10
2022-08-11T08:53:52.454Z,0.10
2022-08-11T08:56:29.324Z,0.08
2022-08-11T08:59:00.487Z,0.03
2022-08-11T09:01:55.344Z,0.13
2022-08-11T09:04:25.875Z,0.10
2022-08-11T09:06:56.661Z,0.05
2022-08-11T09:09:27.128Z,0.10
2022-08-11T09:11:57.266Z,0.10
2022-08-11T09:14:51.575Z,0.10
2022-08-11T09:17:22.371Z,0.10
2022-08-11T09:20:01.758Z,0.10
2022-08-11T09:23:24.278Z,0.10
2022-08-11T09:26:02.081Z,0.10
2022-08-11T09:28:32.708Z,0.10
2022-08-11T09:31:02.892Z,0.10
2022-08-11T09:33:33.588Z,0.10
2022-08-11T09:36:26.528Z,0.10
2022-08-11T09:39:15.144Z,0.10
2022-08-11T09:42:01.518Z,0.10
2022-08-11T09:44:50.996Z,0.10
2022-08-11T09:47:27.378Z,0.10
2022-08-11T09:50:01.874Z,0.03
2022-08-11T09:52:52.151Z,0.10
2022-08-11T09:55:28.026Z,0.10
2022-08-11T09:58:42.971Z,0.10
2022-08-11T10:01:09.866Z,0.10
2022-08-11T10:03:40.598Z,0.00
2022-08-11T10:06:32.839Z,0.00
2022-08-11T10:09:06.463Z,0.10
2022-08-11T10:11:36.760Z,0.00
2022-08-11T10:14:33.369Z,0.10
2022-08-11T10:17:09.745Z,0.10
2022-08-11T10:19:39.894Z,0.15
2022-08-11T10:22:28.715Z,0.20
2022-08-11T10:25:21.426Z,0.10
2022-08-11T10:28:28.776Z,0.10
2022-08-11T10:31:12.497Z,0.10
2022-08-11T10:34:01.894Z,0.00
2022-08-11T10:36:33.747Z,0.00
2022-08-11T10:39:07.400Z,0.10
2022-08-11T10:42:06.370Z,0.10
2022-08-11T10:44:48.092Z,0.10
2022-08-11T10:47:36.592Z,0.15
2022-08-11T10:50:29.059Z,0.10
2022-08-11T10:53:18.983Z,0.05
2022-08-11T10:56:07.276Z,0.10
2022-08-11T10:58:50.654Z,0.10
2022-08-11T11:01:24.930Z,0.30
2022-08-11T11:04:02.141Z,0.10
2022-08-11T11:06:56.849Z,0.10
2022-08-11T11:09:33.517Z,0.10
2022-08-11T11:12:39.229Z,0.10
2022-08-11T11:15:27.644Z,0.10
2022-08-11T11:18:13.205Z,0.20
2022-08-11T11:20:47.439Z,0.10
2022-08-11T11:23:21.126Z,0.20
2022-08-11T11:26:33.780Z,0.10
2022-08-11T11:29:21.494Z,0.10
2022-08-11T11:32:49.677Z,0.10
2022-08-11T11:35:38.229Z,0.10
2022-08-11T11:38:13.736Z,0.10
2022-08-11T11:40:45.401Z,0.10
2022-08-11T11:43:17.000Z,0.10
2022-08-11T11:45:47.102Z,0.10
2022-08-11T11:48:17.212Z,0.10
2022-08-11T11:50:47.256Z,0.10
2022-08-11T11:53:17.311Z,0.10
2022-08-11T11:55:47.407Z,0.10
2022-08-11T11:58:35.771Z,0.05
2022-08-11T12:01:17.976Z,0.13
2022-08-11T12:03:49.463Z,0.10
2022-08-11T12:06:20.836Z,0.20
2022-08-11T12:08:52.309Z,0.10
2022-08-11T12:11:42.259Z,0.10
2022-08-11T12:14:13.806Z,0.10
2022-08-11T12:16:45.135Z,0.10
2022-08-11T12:19:17.437Z,0.10
2022-08-11T12:22:10.573Z,0.20
2022-08-11T12:24:58.858Z,0.10
2022-08-11T12:27:29.866Z,0.10
2022-08-11T12:30:09.788Z,0.10
2022-08-11T12:32:40.811Z,0.10
2022-08-11T12:35:12.531Z,0.10
2022-08-11T12:37:47.173Z,0.10
2022-08-11T12:41:11.954Z,0.20
2022-08-11T12:43:56.682Z,0.22
2022-08-11T12:46:38.962Z,0.10
2022-08-11T12:49:43.355Z,0.10
2022-08-11T12:52:20.438Z,0.00
2022-08-11T12:55:00.752Z,0.10
2022-08-11T12:57:49.385Z,0.13
2022-08-11T13:00:38.239Z,0.10
2022-08-11T13:03:28.191Z,0.22
2022-08-11T13:06:00.001Z,0.10
2022-08-11T13:08:30.725Z,0.25
2022-08-11T13:11:20.547Z,0.20
2022-08-11T13:13:57.523Z,0.10
2022-08-11T13:16:55.113Z,0.10
2022-08-11T13:19:25.424Z,0.10
2022-08-11T13:21:55.546Z,0.10
2022-08-11T13:24:25.709Z,0.10
2022-08-11T13:26:55.859Z,0.10
2022-08-11T13:29:26.951Z,0.10
2022-08-11T13:32:02.281Z,0.10
2022-08-11T13:34:32.475Z,0.10
2022-08-11T13:37:03.610Z,0.10
2022-08-11T13:39:33.994Z,0.20
2022-08-11T13:42:04.851Z,0.10
2022-08-11T13:44:37.261Z,0.10
2022-08-11T13:47:09.471Z,0.20
2022-08-11T13:49:41.844Z,0.10
2022-08-11T13:52:17.380Z,0.10
2022-08-11T13:54:49.310Z,0.10
2022-08-11T13:58:09.022Z,0.10
2022-08-11T14:00:12.958Z,0.20
2022-08-11T14:02:53.928Z,0.10
2022-08-11T14:05:29.809Z,0.10
2022-08-11T14:08:04.242Z,0.20
2022-08-11T14:10:37.127Z,0.20
2022-08-11T14:13:41.203Z,0.10
2022-08-11T14:16:28.536Z,0.10
2022-08-11T14:19:03.184Z,0.20
2022-08-11T14:21:54.226Z,0.10
2022-08-11T14:24:26.701Z,0.10
2022-08-11T14:26:57.077Z,0.20
2022-08-11T14:29:30.372Z,0.10
2022-08-11T14:32:04.252Z,0.20
2022-08-11T14:34:35.581Z,0.22
2022-08-11T14:37:13.680Z,0.28
2022-08-11T14:39:47.186Z,0.10
2022-08-11T14:42:36.689Z,0.30
2022-08-11T14:45:54.370Z,0.20
2022-08-11T14:48:20.847Z,0.20
2022-08-11T14:50:50.925Z,0.20
2022-08-11T14:53:20.963Z,0.20
2022-08-11T14:56:09.335Z,0.17
2022-08-11T14:58:39.914Z,0.17
2022-08-11T15:01:29.802Z,0.10
2022-08-11T15:04:34.329Z,0.22
2022-08-11T15:06:51.207Z,0.20
2022-08-11T15:09:21.321Z,0.10
2022-08-11T15:12:32.184Z,0.10
2022-08-11T15:15:18.113Z,0.10
2022-08-11T15:17:50.028Z,0.20
2022-08-11T15:20:38.788Z,0.30
2022-08-11T15:23:27.065Z,0.20
2022-08-11T15:26:07.763Z,0.20
2022-08-11T15:28:59.109Z,0.20
2022-08-11T15:31:49.439Z,0.20
2022-08-11T15:34:38.864Z,0.20
2022-08-11T15:37:30.602Z,0.30
2022-08-11T15:40:33.227Z,0.20
2022-08-11T15:43:43.467Z,0.10
2022-08-11T15:46:19.416Z,0.20
2022-08-11T15:48:58.169Z,0.35
2022-08-11T15:51:49.835Z,0.10
2022-08-11T15:54:22.502Z,0.17
2022-08-11T15:56:53.622Z,0.20
2022-08-11T15:59:44.066Z,0.28
2022-08-11T16:02:35.103Z,0.20
2022-08-11T16:05:07.987Z,0.28
2022-08-11T16:10:22.796Z,0.22
2022-08-11T16:13:03.509Z,0.20
2022-08-11T16:15:59.823Z,0.30
2022-08-11T16:18:41.771Z,0.32
2022-08-11T16:21:26.216Z,0.22
2022-08-11T16:26:30.439Z,0.40
2022-08-11T16:27:13.544Z,0.30
2022-08-11T16:29:48.999Z,0.35
2022-08-11T16:32:24.404Z,0.30
2022-08-11T16:35:20.223Z,0.20
2022-08-11T16:38:08.216Z,0.20
2022-08-11T16:40:38.337Z,0.20
2022-08-11T16:43:27.796Z,0.30
2022-08-11T16:46:16.001Z,0.30
2022-08-11T16:48:47.386Z,0.20
2022-08-11T16:51:17.590Z,0.22
2022-08-11T16:54:04.146Z,0.20
2022-08-11T16:56:44.971Z,0.40
2022-08-11T16:59:24.510Z,0.47
2022-08-11T17:01:56.439Z,0.20
2022-08-11T17:04:48.090Z,0.30
2022-08-11T17:07:41.721Z,0.35
2022-08-11T17:13:46.178Z,0.30
2022-08-11T17:16:17.900Z,0.40
2022-08-11T17:19:18.560Z,0.20
2022-08-11T17:22:26.899Z,0.38
2022-08-11T17:24:57.153Z,0.30
2022-08-11T17:27:27.197Z,0.30
2022-08-11T17:29:59.670Z,0.20
2022-08-11T17:33:01.456Z,0.30
2022-08-11T17:35:35.273Z,0.30
2022-08-11T17:38:17.856Z,0.20
2022-08-11T17:41:22.788Z,0.20
2022-08-11T17:44:12.935Z,0.30
2022-08-11T17:47:05.711Z,0.45
2022-08-11T17:49:38.604Z,0.40
2022-08-11T17:52:28.785Z,0.52
2022-08-11T17:55:51.484Z,0.50
2022-08-11T17:58:27.350Z,0.30
2022-08-11T18:00:57.531Z,0.40
2022-08-11T18:03:34.144Z,0.30
2022-08-11T18:06:04.808Z,0.30
2022-08-11T18:08:53.718Z,0.30
2022-08-11T18:12:06.571Z,0.50
2022-08-11T18:14:52.991Z,0.40
2022-08-11T18:17:41.398Z,0.30
2022-08-11T18:20:29.773Z,0.35
2022-08-11T18:23:17.814Z,0.30
2022-08-11T18:26:06.477Z,0.35
2022-08-11T18:29:04.390Z,0.40
2022-08-11T18:31:56.712Z,0.30
2022-08-11T18:34:52.059Z,0.32
2022-08-11T18:37:43.946Z,0.40
2022-08-11T18:40:37.232Z,0.30
2022-08-11T18:43:27.455Z,0.40
2022-08-11T18:46:25.016Z,0.38
2022-08-11T18:49:26.609Z,0.55
2022-08-11T18:52:23.278Z,0.40
2022-08-11T18:55:13.887Z,0.40
2022-08-11T18:58:02.036Z,0.32
2022-08-11T19:00:50.258Z,0.40
2022-08-11T19:03:48.431Z,0.80
2022-08-11T19:06:40.734Z,0.57
2022-08-11T19:09:34.632Z,0.40
2022-08-11T19:12:23.572Z,0.47
2022-08-11T19:15:11.930Z,0.50
2022-08-11T19:18:01.215Z,0.40
2022-08-11T19:20:51.030Z,0.50
2022-08-11T19:23:48.911Z,0.40
2022-08-11T19:26:37.174Z,0.45
2022-08-11T19:30:09.079Z,0.50
2022-08-11T19:32:34.204Z,0.60
2022-08-11T19:35:22.649Z,0.40
2022-08-11T19:38:11.127Z,0.40
2022-08-11T19:40:59.242Z,0.35
2022-08-11T19:43:47.323Z,0.40
2022-08-11T19:46:35.710Z,0.38
2022-08-11T19:49:24.098Z,0.43
2022-08-11T19:52:12.610Z,0.40
2022-08-11T19:55:00.815Z,0.20
2022-08-11T19:57:49.171Z,0.40
2022-08-11T20:00:39.918Z,0.55
2022-08-11T20:03:30.405Z,0.40
2022-08-11T20:06:24.971Z,0.50
2022-08-11T20:09:17.789Z,0.50
2022-08-11T20:12:08.573Z,0.47
2022-08-11T20:14:59.111Z,0.60
2022-08-11T20:17:49.186Z,0.45
2022-08-11T20:20:37.720Z,0.60
2022-08-11T20:23:26.246Z,0.50
2022-08-11T20:26:30.230Z,0.38
2022-08-11T20:29:19.858Z,0.45
2022-08-11T20:32:09.677Z,0.65
2022-08-11T20:34:58.358Z,0.60
2022-08-11T20:37:51.076Z,0.32
2022-08-11T20:40:44.010Z,0.60
2022-08-11T20:44:06.239Z,0.50
2022-08-11T20:46:46.381Z,0.57
2022-08-11T20:49:45.932Z,0.40
2022-08-11T20:52:43.047Z,0.40
2022-08-11T20:55:52.292Z,0.70
2022-08-11T20:59:13.454Z,0.40
2022-08-11T21:01:52.250Z,0.50
2022-08-11T21:04:54.476Z,0.47
2022-08-11T21:07:55.368Z,0.55
2022-08-11T21:10:47.270Z,0.50
2022-08-11T21:13:47.567Z,0.50
2022-08-11T21:16:52.851Z,0.55
2022-08-11T21:20:01.199Z,0.70
2022-08-11T21:23:24.010Z,0.70
2022-08-11T21:26:21.664Z,0.50
2022-08-11T21:29:10.072Z,0.70
2022-08-11T21:31:58.830Z,0.40
2022-08-11T21:34:47.214Z,0.80
2022-08-11T21:37:35.455Z,0.63
2022-08-11T21:40:25.197Z,0.45
2022-08-11T21:43:13.480Z,0.70
2022-08-11T21:46:01.879Z,0.57
2022-08-11T21:48:50.700Z,0.70
2022-08-11T21:51:41.567Z,0.55
2022-08-11T21:54:33.057Z,0.45
2022-08-11T21:57:21.576Z,0.63
2022-08-11T22:00:14.991Z,0.50
2022-08-11T22:03:05.870Z,0.60
2022-08-11T22:05:54.762Z,0.73
2022-08-11T22:08:44.111Z,0.60
2022-08-11T22:11:33.453Z,0.70
2022-08-11T22:14:21.839Z,0.50
2022-08-11T22:17:10.974Z,0.82
2022-08-11T22:20:00.998Z,0.60
2022-08-11T22:22:53.006Z,0.68
2022-08-11T22:25:52.110Z,0.50
2022-08-11T22:28:43.520Z,0.57
2022-08-11T22:31:31.969Z,0.70
2022-08-11T22:34:20.315Z,0.68
2022-08-11T22:37:08.769Z,0.63
2022-08-11T22:40:01.717Z,0.68
2022-08-11T22:42:52.130Z,0.52
2022-08-11T22:45:40.653Z,0.50
2022-08-11T22:48:29.793Z,0.50
2022-08-11T22:51:18.869Z,0.50
2022-08-11T22:54:07.827Z,0.50
2022-08-11T22:56:56.409Z,0.47
2022-08-11T22:59:45.141Z,0.60
2022-08-11T23:02:33.691Z,0.90
2022-08-11T23:05:22.576Z,0.68
2022-08-11T23:08:10.971Z,0.93
2022-08-11T23:10:59.649Z,0.70
2022-08-11T23:13:49.310Z,0.93
2022-08-11T23:16:40.796Z,0.60
2022-08-11T23:20:08.702Z,0.75
2022-08-11T23:22:50.046Z,0.60
2022-08-11T23:25:38.878Z,0.60
2022-08-11T23:28:28.262Z,0.43
2022-08-11T23:31:17.728Z,0.70
2022-08-11T23:34:06.767Z,0.40
2022-08-11T23:36:55.049Z,0.52
2022-08-11T23:39:43.829Z,0.55
2022-08-11T23:42:32.274Z,0.70
2022-08-11T23:45:24.894Z,0.60
2022-08-11T23:48:13.545Z,0.60
2022-08-11T23:51:02.897Z,0.68
2022-08-11T23:53:51.373Z,0.98
2022-08-11T23:56:39.653Z,0.63
2022-08-11T23:59:28.110Z,0.60
